Time;durP1;ratioP1;P1;durP2;ratioP2;P2;SDS_P1;SDS_P2;PMS_P1;PMS_P2;Temp;Humidity;BMP_temperature;BMP_pressure;BME280_temperature;BME280_humidity;BME280_pressure;Samples;Min_cycle;Max_cycle;Signal;HPM_P1;HPM_P2
2023/09/28 00:07:14;;;;;;;1.02;0.90;;;;;;;16.77;68.10;101259.56;15616318;28;20037;-48
2023/09/28 00:14:53;;;;;;;0.10;0.10;;;;;;;16.64;67.68;101254.34;15610796;28;20049;-46
2023/09/28 00:22:27;;;;;;;5.88;0.95;;;;;;;16.71;67.25;101248.81;15600281;22;20123;-48
2023/09/28 00:30:05;;;;;;;0.00;0.00;;;;;;;16.53;67.85;101250.59;15530147;28;20070;-49
2023/09/28 00:37:39;;;;;;;0.20;0.20;;;;;;;16.30;68.48;101251.44;15519535;28;20038;-48
2023/09/28 00:45:14;;;;;;;1.42;1.20;;;;;;;16.14;68.41;101249.44;15519542;28;20104;-48
2023/09/28 00:52:49;;;;;;;0.93;0.68;;;;;;;15.98;69.00;101245.53;15494179;28;20054;-48
2023/09/28 01:00:26;;;;;;;0.50;0.45;;;;;;;16.07;68.11;101240.59;15511692;28;20436;-48
2023/09/28 01:08:08;;;;;;;0.22;0.22;;;;;;;15.97;68.63;101232.25;15530001;28;20037;-48
2023/09/28 01:15:46;;;;;;;0.32;0.32;;;;;;;15.86;69.17;101230.34;15540323;28;20073;-48
2023/09/28 01:23:21;;;;;;;1.95;0.40;;;;;;;15.77;68.98;101227.97;15530561;28;20108;-47
2023/09/28 01:30:54;;;;;;;0.45;0.32;;;;;;;15.70;68.61;101226.44;15515920;28;20037;-53
2023/09/28 01:38:35;;;;;;;2.17;0.75;;;;;;;15.67;68.55;101225.03;15526437;28;20478;-48
2023/09/28 01:46:10;;;;;;;1.40;0.45;;;;;;;15.52;68.69;101221.88;15550139;28;20137;-52
2023/09/28 01:53:48;;;;;;;0.98;0.70;;;;;;;15.43;69.27;101223.25;15520204;28;20045;-46
2023/09/28 02:01:26;;;;;;;0.43;0.43;;;;;;;15.33;69.14;101202.19;15543972;28;20046;-51
2023/09/28 02:09:04;;;;;;;1.27;1.08;;;;;;;15.34;69.20;101205.69;15548881;28;20045;-48
2023/09/28 02:16:37;;;;;;;0.40;0.40;;;;;;;15.46;69.18;101193.03;15539785;28;20129;-52
2023/09/28 02:24:11;;;;;;;0.65;0.65;;;;;;;15.40;69.40;101186.69;15537044;28;20042;-51
2023/09/28 02:31:46;;;;;;;3.05;0.82;;;;;;;15.65;68.27;101186.53;15531477;28;20041;-49
2023/09/28 02:39:21;;;;;;;0.10;0.10;;;;;;;15.77;67.68;101186.56;15538480;28;20490;-48
2023/09/28 02:46:54;;;;;;;2.30;1.45;;;;;;;15.97;66.58;101178.91;15542108;28;20467;-48
2023/09/28 02:54:29;;;;;;;;;;;;;;;15.82;67.00;101173.16;15518772;28;20053;-51
2023/09/28 03:02:03;;;;;;;1.65;0.75;;;;;;;15.97;66.52;101175.38;15524000;28;19952;-50
2023/09/28 03:09:41;;;;;;;1.20;0.47;;;;;;;15.89;66.53;101176.53;15514114;28;20037;-48
2023/09/28 03:17:15;;;;;;;0.65;0.63;;;;;;;15.93;65.92;101171.50;15523437;28;20117;-50
2023/09/28 03:24:49;;;;;;;;;;;;;;;15.76;67.04;101183.03;15498664;28;20046;-50
2023/09/28 03:32:22;;;;;;;0.10;0.10;;;;;;;15.62;67.08;101178.84;15497136;28;19929;-51
2023/09/28 03:39:58;;;;;;;3.88;2.40;;;;;;;15.68;67.13;101188.78;15538912;28;20376;-49
2023/09/28 03:47:31;;;;;;;0.50;0.30;;;;;;;15.91;66.31;101187.16;15532155;28;20125;-48
2023/09/28 03:55:09;;;;;;;0.73;0.65;;;;;;;15.61;67.23;101200.72;15535442;28;20384;-48
2023/09/28 04:02:45;;;;;;;2.97;1.35;;;;;;;15.36;67.53;101203.59;15528156;28;20051;-47
2023/09/28 04:10:21;;;;;;;0.75;0.75;;;;;;;15.08;68.36;101205.03;15547940;28;20041;-50
2023/09/28 04:17:56;;;;;;;0.40;0.38;;;;;;;15.02;68.24;101203.25;15528447;28;20058;-50
2023/09/28 04:25:31;;;;;;;1.20;1.05;;;;;;;14.94;68.65;101204.38;15533464;28;20038;-51
2023/09/28 04:33:05;;;;;;;0.88;0.85;;;;;;;14.88;69.06;101205.31;15560530;28;20124;-50
2023/09/28 04:40:40;;;;;;;0.55;0.50;;;;;;;14.88;69.02;101208.00;15566871;28;20073;-52
2023/09/28 04:48:13;;;;;;;3.08;1.27;;;;;;;15.00;68.97;101213.44;15549580;28;20061;-48
2023/09/28 04:55:47;;;;;;;1.80;1.65;;;;;;;15.23;67.39;101218.97;15551058;28;20351;-49
2023/09/28 05:03:21;;;;;;;3.67;1.85;;;;;;;15.27;68.25;101222.84;15563128;28;20538;-45
2023/09/28 05:10:58;;;;;;;0.98;0.57;;;;;;;15.32;67.84;101225.69;15562887;28;20379;-46
2023/09/28 05:18:31;;;;;;;0.55;0.17;;;;;;;15.43;67.95;101228.66;15549385;28;20045;-43
2023/09/28 05:26:06;;;;;;;0.28;0.28;;;;;;;16.19;65.38;101235.19;15529315;28;20128;-45
2023/09/28 05:33:39;;;;;;;0.08;0.08;;;;;;;15.71;67.03;101222.66;15551360;28;20062;-49
2023/09/28 05:41:14;;;;;;;1.40;0.73;;;;;;;15.37;68.35;101221.47;15554307;28;20121;-48
2023/09/28 05:48:47;;;;;;;0.30;0.30;;;;;;;15.68;67.68;101225.84;15555525;28;20042;-44
2023/09/28 05:56:23;;;;;;;0.40;0.40;;;;;;;15.71;67.88;101237.00;15513837;28;20078;-45
2023/09/28 06:03:57;;;;;;;0.00;0.00;;;;;;;15.89;67.50;101252.34;15521987;28;20041;-44
2023/09/28 06:11:32;;;;;;;0.65;0.30;;;;;;;16.00;68.23;101245.31;15551930;28;20466;-45
2023/09/28 06:19:05;;;;;;;1.30;0.93;;;;;;;16.05;68.32;101267.94;15535408;28;20553;-44
2023/09/28 06:26:40;;;;;;;0.98;0.50;;;;;;;16.53;67.79;101253.31;15620259;23;20564;-48
2023/09/28 06:34:13;;;;;;;3.70;1.40;;;;;;;16.92;67.04;101252.81;15594427;28;20037;-49
2023/09/28 06:41:48;;;;;;;;;;;;;;;17.11;66.61;101257.00;15613947;28;20037;-48
2023/09/28 06:49:32;;;;;;;0.40;0.40;;;;;;;17.39;67.41;101275.16;15593951;28;19975;-48
2023/09/28 06:57:07;;;;;;;1.60;0.82;;;;;;;17.79;65.50;101277.84;15611849;28;20044;-48
2023/09/28 07:04:41;;;;;;;3.00;0.90;;;;;;;18.66;63.43;101271.06;15601452;28;20410;-49
2023/09/28 07:12:15;;;;;;;0.55;0.55;;;;;;;18.60;64.15;101270.16;15587934;28;20057;-47
2023/09/28 07:19:48;;;;;;;1.48;0.90;;;;;;;19.44;61.38;101281.81;15591113;28;20441;-48
2023/09/28 07:27:23;;;;;;;0.50;0.50;;;;;;;19.88;60.78;101293.47;15597937;28;20503;-46
2023/09/28 07:34:56;;;;;;;7.50;2.50;;;;;;;20.13;60.04;101299.13;15597188;28;20041;-49
2023/09/28 07:42:31;;;;;;;2.90;2.70;;;;;;;20.39;59.89;101293.88;15601523;28;20053;-50
2023/09/28 07:50:05;;;;;;;0.60;0.50;;;;;;;21.14;58.65;101305.50;15610382;28;20453;-48
2023/09/28 07:57:40;;;;;;;2.55;2.00;;;;;;;21.49;56.58;101309.44;15604954;28;20484;-47
2023/09/28 08:05:13;;;;;;;1.67;1.10;;;;;;;21.99;55.68;101311.44;15603145;28;20100;-50
2023/09/28 08:12:48;;;;;;;1.63;0.85;;;;;;;22.10;55.61;101309.53;15615759;28;20370;-52
2023/09/28 08:20:23;;;;;;;1.10;0.55;;;;;;;23.04;54.08;101305.31;15606180;28;20033;-49
2023/09/28 08:27:57;;;;;;;0.40;0.40;;;;;;;22.90;54.57;101305.09;15616634;28;20034;-47
2023/09/28 08:35:31;;;;;;;1.13;0.93;;;;;;;23.68;53.72;101309.09;15619191;28;20049;-47
2023/09/28 08:43:10;;;;;;;0.95;0.75;;;;;;;24.04;53.32;101314.34;15593319;28;20049;-46
2023/09/28 08:50:45;;;;;;;1.95;1.45;;;;;;;24.62;50.89;101315.22;15592666;28;20375;-48
2023/09/28 08:58:22;;;;;;;3.30;1.52;;;;;;;24.36;52.40;101328.34;15598950;28;20391;-46
2023/09/28 09:05:58;;;;;;;0.70;0.60;;;;;;;24.84;51.47;101330.34;15579891;28;20038;-47
2023/09/28 09:13:33;;;;;;;0.25;0.25;;;;;;;24.51;52.92;101330.13;15593367;28;20045;-46
2023/09/28 09:21:07;;;;;;;0.25;0.20;;;;;;;24.74;52.69;101322.22;15588921;28;20096;-47
2023/09/28 09:28:44;;;;;;;2.00;0.95;;;;;;;25.31;50.70;101321.28;15589993;28;20535;-47
2023/09/28 09:36:21;;;;;;;0.87;0.47;;;;;;;26.47;48.93;101321.72;15588024;28;20287;-49
2023/09/28 09:43:58;;;;;;;2.35;1.25;;;;;;;26.44;47.42;101328.69;15595583;28;20103;-48
2023/09/28 09:51:39;;;;;;;0.77;0.70;;;;;;;26.90;49.06;101314.00;15591501;28;20052;-47
2023/09/28 09:59:15;;;;;;;0.57;0.50;;;;;;;26.14;48.52;101307.97;15594541;28;20127;-50
2023/09/28 10:06:52;;;;;;;3.80;1.15;;;;;;;27.83;44.21;101306.22;15610308;28;20049;-51
2023/09/28 10:14:27;;;;;;;0.65;0.63;;;;;;;27.92;42.87;101309.06;15613140;28;20051;-47
2023/09/28 10:22:00;;;;;;;0.60;0.30;;;;;;;27.27;45.91;101317.69;15616018;28;20418;-48
2023/09/28 10:29:35;;;;;;;0.38;0.38;;;;;;;28.46;42.22;101321.78;15597434;28;20045;-50
2023/09/28 10:37:19;;;;;;;0.93;0.55;;;;;;;28.21;42.72;101322.38;15607432;28;20047;-48
2023/09/28 10:44:55;;;;;;;1.10;0.38;;;;;;;29.49;38.63;101319.69;15593968;28;20037;-47
2023/09/28 10:52:29;;;;;;;1.10;0.70;;;;;;;29.04;40.10;101313.56;15592563;28;20045;-48
2023/09/28 11:00:12;;;;;;;0.20;0.20;;;;;;;28.47;42.25;101319.81;15580667;28;20045;-47
2023/09/28 11:07:48;;;;;;;1.95;1.00;;;;;;;29.27;37.73;101305.97;15598143;28;20045;-47
2023/09/28 11:15:23;;;;;;;0.95;0.88;;;;;;;29.65;33.64;101301.47;15574699;28;20120;-50
2023/09/28 11:22:57;;;;;;;0.17;0.10;;;;;;;29.91;35.81;101317.28;15590747;28;20568;-49
2023/09/28 11:30:31;;;;;;;0.35;0.15;;;;;;;28.90;37.03;101324.72;15601806;28;20419;-47
2023/09/28 11:38:09;;;;;;;0.73;0.38;;;;;;;29.48;37.14;101326.38;15607335;28;20084;-48
2023/09/28 11:45:48;;;;;;;0.80;0.40;;;;;;;29.76;36.53;101312.25;15612816;28;20566;-47
2023/09/28 11:53:23;;;;;;;0.80;0.55;;;;;;;27.91;39.10;101307.44;15579169;28;20085;-48
2023/09/28 12:00:58;;;;;;;0.47;0.32;;;;;;;27.96;40.47;101321.91;15599579;28;20458;-51
2023/09/28 12:08:36;;;;;;;0.45;0.38;;;;;;;28.32;40.27;101309.97;15604044;28;20060;-50
2023/09/28 12:16:11;;;;;;;7.20;1.42;;;;;;;28.35;38.45;101298.34;15601015;28;20045;-50
2023/09/28 12:23:45;;;;;;;0.47;0.30;;;;;;;28.58;38.56;101298.25;15618345;23;20050;-47
2023/09/28 12:31:19;;;;;;;0.50;0.28;;;;;;;29.20;37.38;101295.41;15547717;28;20030;-46
2023/09/28 12:38:53;;;;;;;0.17;0.17;;;;;;;29.14;37.13;101304.97;15539744;28;20037;-48
2023/09/28 12:46:27;;;;;;;4.10;1.55;;;;;;;29.11;35.88;101300.91;15506564;28;20509;-50
2023/09/28 12:54:02;;;;;;;0.35;0.28;;;;;;;30.16;36.24;101299.81;15520030;28;20037;-46
2023/09/28 13:01:37;;;;;;;0.47;0.25;;;;;;;30.77;33.90;101291.31;15531778;28;20130;-49
2023/09/28 13:09:14;;;;;;;5.70;1.25;;;;;;;29.33;36.81;101293.63;15519817;28;20034;-46
2023/09/28 13:16:49;;;;;;;1.30;0.55;;;;;;;30.10;35.15;101289.22;15501564;28;20042;-50
2023/09/28 13:24:24;;;;;;;0.10;0.10;;;;;;;29.30;36.49;101281.28;15483884;28;20100;-49
2023/09/28 13:31:59;;;;;;;1.85;0.77;;;;;;;30.23;36.48;101260.56;15505063;28;20080;-47
2023/09/28 13:39:35;;;;;;;0.50;0.50;;;;;;;29.79;35.42;101254.25;15561672;28;20410;-48
2023/09/28 13:47:10;;;;;;;1.77;0.65;;;;;;;28.36;38.92;101271.53;15560458;28;20065;-48
2023/09/28 13:54:43;;;;;;;0.77;0.40;;;;;;;28.88;35.34;101271.72;15559675;28;20517;-48
2023/09/28 14:02:20;;;;;;;1.65;0.50;;;;;;;28.30;34.86;101262.53;15506532;28;20042;-48
2023/09/28 14:09:53;;;;;;;0.25;0.20;;;;;;;28.69;35.16;101263.72;15506966;28;20073;-50
2023/09/28 14:17:27;;;;;;;0.28;0.15;;;;;;;27.96;35.50;101247.41;15480310;28;20053;-49
2023/09/28 14:25:02;;;;;;;0.35;0.35;;;;;;;28.00;36.64;101247.59;15479745;28;20137;-45
2023/09/28 14:32:37;;;;;;;0.80;0.25;;;;;;;27.71;37.48;101243.34;15499902;28;20049;-47
2023/09/28 14:40:13;;;;;;;2.10;0.50;;;;;;;27.88;38.55;101250.91;15557198;28;20042;-52
2023/09/28 14:47:48;;;;;;;0.50;0.30;;;;;;;27.76;38.72;101270.00;15557504;28;20048;-49
2023/09/28 14:55:21;;;;;;;0.52;0.17;;;;;;;27.73;39.02;101264.28;15498406;28;20567;-47
2023/09/28 15:02:56;;;;;;;1.08;0.52;;;;;;;27.25;38.91;101249.09;15552335;28;20037;-49
2023/09/28 15:10:29;;;;;;;0.22;0.20;;;;;;;27.46;37.87;101271.50;15538832;28;20054;-46
2023/09/28 15:18:05;;;;;;;0.15;0.13;;;;;;;27.07;39.98;101283.09;15509443;28;20042;-50
2023/09/28 15:25:39;;;;;;;0.43;0.28;;;;;;;27.53;39.04;101277.41;15501436;28;20133;-47
2023/09/28 15:33:13;;;;;;;0.50;0.45;;;;;;;27.38;38.96;101263.97;15502335;28;20049;-49
2023/09/28 15:40:48;;;;;;;0.82;0.52;;;;;;;27.47;37.42;101259.34;15554361;28;20041;-50
2023/09/28 15:48:24;;;;;;;0.10;0.10;;;;;;;27.57;38.09;101275.66;15537184;28;20038;-46
2023/09/28 15:55:57;;;;;;;4.30;1.23;;;;;;;27.52;39.17;101258.44;15528168;28;20037;-47
2023/09/28 16:03:32;;;;;;;0.90;0.30;;;;;;;27.31;41.19;101275.41;15494203;28;20120;-48
2023/09/28 16:11:06;;;;;;;0.15;0.15;;;;;;;26.71;45.14;101284.63;15494324;28;20043;-47
2023/09/28 16:18:41;;;;;;;0.08;0.08;;;;;;;26.19;46.37;101300.44;15492765;28;20458;-46
2023/09/28 16:26:14;;;;;;;0.50;0.30;;;;;;;25.57;48.16;101299.75;15497484;28;20573;-48
2023/09/28 16:33:49;;;;;;;0.45;0.25;;;;;;;25.14;49.17;101291.56;15533681;28;20045;-47
2023/09/28 16:41:23;;;;;;;1.30;0.10;;;;;;;24.62;50.69;101297.91;15564080;28;20133;-50
2023/09/28 16:48:59;;;;;;;1.17;0.70;;;;;;;24.26;51.96;101308.41;15564132;28;20450;-47
2023/09/28 16:56:32;;;;;;;0.30;0.30;;;;;;;23.87;52.94;101310.06;15556995;28;20039;-46
2023/09/28 17:04:07;;;;;;;0.40;0.30;;;;;;;23.58;53.35;101322.84;15485410;28;20468;-49
2023/09/28 17:11:41;;;;;;;0.88;0.75;;;;;;;23.16;54.75;101314.00;15484775;28;20047;-52
2023/09/28 17:19:16;;;;;;;4.28;1.27;;;;;;;22.86;56.09;101323.13;15485106;28;20042;-48
2023/09/28 17:26:51;;;;;;;0.55;0.30;;;;;;;22.60;55.64;101321.56;15500960;28;20439;-48
2023/09/28 17:34:26;;;;;;;0.32;0.28;;;;;;;22.40;56.23;101317.75;15518973;28;20400;-48
2023/09/28 17:41:59;;;;;;;0.63;0.60;;;;;;;22.30;56.52;101322.41;15560594;28;20128;-48
2023/09/28 17:49:34;;;;;;;0.47;0.43;;;;;;;22.04;57.48;101329.75;15543260;28;20045;-46
2023/09/28 17:57:08;;;;;;;0.98;0.60;;;;;;;21.77;57.98;101330.00;15548962;28;20183;-49
2023/09/28 18:04:42;;;;;;;0.20;0.20;;;;;;;21.65;58.21;101333.81;15481360;28;20502;-47
2023/09/28 18:12:15;;;;;;;0.93;0.88;;;;;;;21.63;58.26;101335.97;15465661;28;20101;-47
2023/09/28 18:19:50;;;;;;;1.55;1.42;;;;;;;21.36;58.68;101346.28;15501386;28;20078;-47
2023/09/28 18:27:23;;;;;;;0.55;0.52;;;;;;;21.15;59.71;101345.34;15586586;23;20049;-52
2023/09/28 18:34:57;;;;;;;15.55;1.23;;;;;;;20.68;60.88;101348.09;15614129;28;20501;-55
2023/09/28 18:42:30;;;;;;;0.40;0.40;;;;;;;20.69;60.69;101349.72;15613185;28;20069;-55
2023/09/28 18:50:06;;;;;;;0.38;0.35;;;;;;;20.56;61.17;101346.38;15612308;28;20111;-53
2023/09/28 18:57:41;;;;;;;0.55;0.55;;;;;;;20.40;61.68;101350.03;15563204;28;20046;-55
2023/09/28 19:05:15;;;;;;;0.70;0.70;;;;;;;20.37;61.66;101353.28;15551238;28;20046;-50
2023/09/28 19:12:49;;;;;;;0.50;0.47;;;;;;;20.15;62.28;101355.28;15550414;28;20104;-54
2023/09/28 19:20:26;;;;;;;0.98;0.90;;;;;;;20.15;62.38;101355.28;15534664;28;20030;-53
2023/09/28 19:27:59;;;;;;;1.60;1.00;;;;;;;19.99;62.97;101354.31;15549720;28;20100;-56
2023/09/28 19:35:34;;;;;;;0.22;0.17;;;;;;;19.77;63.83;101347.03;15570072;28;20064;-56
2023/09/28 19:43:07;;;;;;;0.73;0.73;;;;;;;19.70;63.41;101356.47;15610270;28;20049;-56
2023/09/28 19:50:43;;;;;;;1.27;0.63;;;;;;;19.91;62.37;101352.91;15609004;28;20565;-51
2023/09/28 19:58:17;;;;;;;0.40;0.40;;;;;;;19.58;62.96;101351.97;15563208;28;20438;-47
2023/09/28 20:05:52;;;;;;;4.30;1.17;;;;;;;19.66;62.42;101347.16;15561396;28;20049;-55
2023/09/28 20:13:25;;;;;;;0.98;0.43;;;;;;;19.31;63.57;101342.94;15591218;28;20053;-54
2023/09/28 20:21:02;;;;;;;5.50;2.20;;;;;;;18.97;64.76;101348.47;15619665;28;20056;-52
2023/09/28 20:28:35;;;;;;;0.68;0.68;;;;;;;18.97;65.02;101348.47;15618563;28;20045;-51
2023/09/28 20:36:10;;;;;;;3.95;0.82;;;;;;;18.92;64.92;101347.56;15584156;28;20066;-50
2023/09/28 20:43:43;;;;;;;2.03;1.80;;;;;;;18.83;65.25;101339.84;15595578;28;20330;-51
2023/09/28 20:51:18;;;;;;;1.08;0.95;;;;;;;18.58;66.10;101334.84;15601372;28;20065;-53
2023/09/28 20:58:51;;;;;;;6.18;2.72;;;;;;;18.47;66.07;101335.75;15591937;28;20513;-52
2023/09/28 21:06:26;;;;;;;0.60;0.60;;;;;;;18.35;66.51;101335.00;15619035;28;20053;-50
2023/09/28 21:13:59;;;;;;;0.68;0.68;;;;;;;18.21;67.14;101333.69;15556354;28;20038;-51
2023/09/28 21:21:33;;;;;;;0.88;0.82;;;;;;;18.13;67.07;101337.63;15610413;28;20429;-55
2023/09/28 21:29:07;;;;;;;1.10;0.70;;;;;;;18.07;67.00;101344.06;15617148;28;20107;-48
2023/09/28 21:36:42;;;;;;;;;;;;;;;18.02;66.53;101343.97;15556229;28;20573;-52
2023/09/28 21:44:15;;;;;;;0.73;0.57;;;;;;;17.95;66.89;101343.28;15537407;28;19968;-53
2023/09/28 21:51:52;;;;;;;0.40;0.40;;;;;;;17.66;67.79;101337.03;15554882;28;20045;-49
2023/09/28 21:59:26;;;;;;;0.45;0.45;;;;;;;17.67;67.16;101330.53;15567954;28;20550;-53
2023/09/28 22:07:02;;;;;;;0.70;0.70;;;;;;;17.66;66.51;101331.59;15588941;28;20451;-52
2023/09/28 22:14:40;;;;;;;13.50;1.27;;;;;;;17.55;67.33;101336.00;15563780;28;20064;-49
2023/09/28 22:22:16;;;;;;;0.10;0.10;;;;;;;17.50;67.00;101338.63;15610891;28;20053;-53
2023/09/28 22:29:49;;;;;;;0.20;0.20;;;;;;;17.40;67.65;101333.00;15609015;28;20175;-56
2023/09/28 22:37:23;;;;;;;1.83;0.93;;;;;;;17.26;68.32;101327.03;15552040;28;20057;-56
2023/09/28 22:44:56;;;;;;;2.90;1.58;;;;;;;17.31;68.13;101314.38;15551412;28;20160;-55
2023/09/28 22:52:31;;;;;;;0.28;0.28;;;;;;;17.22;67.60;101315.00;15600458;28;20414;-55
2023/09/28 23:00:05;;;;;;;0.38;0.38;;;;;;;17.35;66.95;101317.44;15559196;28;20050;-51
2023/09/28 23:07:40;;;;;;;0.55;0.52;;;;;;;17.37;66.79;101311.78;15550357;28;20046;-53
2023/09/28 23:15:16;;;;;;;0.30;0.30;;;;;;;17.18;67.53;101311.94;15552315;28;20050;-51
2023/09/28 23:22:52;;;;;;;;;;;;;;;16.92;67.97;101312.47;15611521;28;20048;-52
2023/09/28 23:30:27;;;;;;;0.47;0.30;;;;;;;16.96;67.92;101316.34;15601552;28;20306;-52
2023/09/28 23:38:02;;;;;;;4.50;0.75;;;;;;;16.80;68.45;101324.16;15548418;28;20057;-50
2023/09/28 23:45:37;;;;;;;0.30;0.30;;;;;;;16.76;68.36;101333.00;15531318;28;20049;-53
2023/09/28 23:53:12;;;;;;;2.53;1.27;;;;;;;16.63;68.92;101333.22;15572216;28;20125;-53
